Time;durP1;ratioP1;P1;durP2;ratioP2;P2;SDS_P1;SDS_P2;PMS_P1;PMS_P2;Temp;Humidity;BMP_temperature;BMP_pressure;BME280_temperature;BME280_humidity;BME280_pressure;Samples;Min_cycle;Max_cycle;Signal;HPM_P1;HPM_P2
2020/12/20 00:00:39;;;;;;;;;13.00;13.00;;;;;;;;5027169;28;10369;-81
2020/12/20 00:03:05;;;;;;;;;16.00;14.75;;;;;;;;5026129;28;10377;-76
2020/12/20 00:05:32;;;;;;;;;19.50;18.25;;;;;;;;5025438;28;10277;-77
2020/12/20 00:07:59;;;;;;;;;17.25;15.25;;;;;;;;5025444;28;10267;-81
2020/12/20 00:10:28;;;;;;;;;16.25;16.25;;;;;;;;5026555;28;10282;-79
2020/12/20 00:12:56;;;;;;;;;17.75;16.25;;;;;;;;5034416;28;10436;-81
2020/12/20 00:15:23;;;;;;;;;17.75;15.75;;;;;;;;5023752;28;10374;-81
2020/12/20 00:17:50;;;;;;;;;18.00;13.25;;;;;;;;5025953;28;11092;-82
2020/12/20 00:20:17;;;;;;;;;15.00;12.75;;;;;;;;5025337;28;10424;-82
2020/12/20 00:22:43;;;;;;;;;13.00;13.00;;;;;;;;5025324;28;10526;-81
2020/12/20 00:25:10;;;;;;;;;20.00;13.75;;;;;;;;5025288;28;11584;-81
2020/12/20 00:27:37;;;;;;;;;16.00;13.00;;;;;;;;5025999;28;10437;-82
2020/12/20 00:30:05;;;;;;;;;17.00;14.75;;;;;;;;5026346;28;10395;-81
2020/12/20 00:32:32;;;;;;;;;20.50;16.25;;;;;;;;5023374;28;10445;-79
2020/12/20 00:35:00;;;;;;;;;13.75;13.75;;;;;;;;5025165;28;11335;-80
2020/12/20 00:37:26;;;;;;;;;12.25;12.25;;;;;;;;5024195;28;11016;-80
2020/12/20 00:39:54;;;;;;;;;12.25;12.25;;;;;;;;5025206;28;10464;-79
2020/12/20 00:42:21;;;;;;;;;13.00;13.00;;;;;;;;5024688;28;10297;-76
2020/12/20 00:44:48;;;;;;;;;16.75;14.50;;;;;;;;5026614;28;10555;-77
2020/12/20 00:47:16;;;;;;;;;15.50;11.00;;;;;;;;5026579;28;11088;-77
2020/12/20 00:49:43;;;;;;;;;16.75;16.75;;;;;;;;5025046;28;10456;-79
2020/12/20 00:52:10;;;;;;;;;14.00;10.50;;;;;;;;5024617;28;10562;-77
2020/12/20 00:54:37;;;;;;;;;15.75;14.25;;;;;;;;5025249;28;10319;-78
2020/12/20 00:57:04;;;;;;;;;12.00;11.25;;;;;;;;5058105;28;10288;-79
2020/12/20 00:59:31;;;;;;;;;12.00;12.00;;;;;;;;5024903;28;10443;-80
2020/12/20 01:01:58;;;;;;;;;17.00;13.50;;;;;;;;5025740;28;10314;-77
2020/12/20 01:04:26;;;;;;;;;12.75;12.25;;;;;;;;5025705;28;10303;-79
2020/12/20 01:06:56;;;;;;;;;13.50;13.50;;;;;;;;5024786;28;10528;-78
2020/12/20 01:09:23;;;;;;;;;17.25;15.25;;;;;;;;5026379;28;10449;-79
2020/12/20 01:11:52;;;;;;;;;14.75;11.50;;;;;;;;5024167;28;10430;-79
2020/12/20 01:14:19;;;;;;;;;11.00;11.00;;;;;;;;5025948;28;10442;-80
2020/12/20 01:16:46;;;;;;;;;12.25;12.25;;;;;;;;5026555;28;10430;-75
2020/12/20 01:19:13;;;;;;;;;11.00;11.00;;;;;;;;5025904;28;10274;-79
2020/12/20 01:21:41;;;;;;;;;13.25;13.25;;;;;;;;5026411;28;11203;-77
2020/12/20 01:24:08;;;;;;;;;11.50;10.00;;;;;;;;5026561;28;10275;-79
2020/12/20 01:26:35;;;;;;;;;11.25;9.25;;;;;;;;5026825;28;10366;-77
2020/12/20 01:29:02;;;;;;;;;13.75;11.25;;;;;;;;5025098;28;10330;-80
2020/12/20 01:31:28;;;;;;;;;11.25;11.25;;;;;;;;5025435;28;10238;-82
2020/12/20 01:33:55;;;;;;;;;24.00;19.00;;;;;;;;5023766;28;10402;-80
2020/12/20 01:36:22;;;;;;;;;10.25;10.25;;;;;;;;5025014;28;11375;-81
2020/12/20 01:38:50;;;;;;;;;11.75;11.75;;;;;;;;5021170;28;10300;-81
2020/12/20 01:41:17;;;;;;;;;12.25;12.25;;;;;;;;5028148;28;10284;-83
2020/12/20 01:43:46;;;;;;;;;12.75;9.00;;;;;;;;5023442;28;10281;-82
2020/12/20 01:46:14;;;;;;;;;16.75;11.75;;;;;;;;5023454;28;10451;-83
2020/12/20 01:48:41;;;;;;;;;12.25;12.25;;;;;;;;5024276;28;10346;-83
2020/12/20 01:51:08;;;;;;;;;12.25;11.50;;;;;;;;5023460;28;10265;-82
2020/12/20 01:53:36;;;;;;;;;12.25;12.25;;;;;;;;5023551;28;10431;-81
2020/12/20 01:56:04;;;;;;;;;15.75;12.25;;;;;;;;5024155;28;10846;-81
2020/12/20 01:58:36;;;;;;;;;15.00;12.75;;;;;;;;5025030;28;10375;-82
2020/12/20 02:01:04;;;;;;;;;5.25;5.25;;;;;;;;5018876;28;10833;-82
2020/12/20 02:03:31;;;;;;;;;12.25;11.75;;;;;;;;5022801;28;10340;-81
2020/12/20 02:05:58;;;;;;;;;15.50;11.75;;;;;;;;5027098;28;10362;-80
2020/12/20 02:08:26;;;;;;;;;10.50;8.75;;;;;;;;5023106;28;10154;-83
2020/12/20 02:11:10;;;;;;;;;11.25;11.00;;;;;;;;5025298;28;10971;-81
2020/12/20 02:13:41;;;;;;;;;16.75;12.75;;;;;;;;5022934;28;11142;-82
2020/12/20 02:16:08;;;;;;;;;14.25;8.00;;;;;;;;5019671;28;10356;-82
2020/12/20 02:18:35;;;;;;;;;15.00;13.75;;;;;;;;5024533;28;10175;-81
2020/12/20 02:21:02;;;;;;;;;9.50;9.50;;;;;;;;5020460;28;10148;-84
2020/12/20 02:23:39;;;;;;;;;13.00;10.00;;;;;;;;5024595;28;10164;-83
2020/12/20 02:26:06;;;;;;;;;13.00;11.75;;;;;;;;5024260;28;10239;-83
2020/12/20 02:28:33;;;;;;;;;13.00;12.00;;;;;;;;5028410;28;10256;-80
2020/12/20 02:31:01;;;;;;;;;12.50;11.75;;;;;;;;5024465;28;10061;-80
2020/12/20 02:33:28;;;;;;;;;12.50;6.50;;;;;;;;5020537;28;10137;-78
2020/12/20 02:35:54;;;;;;;;;11.00;11.00;;;;;;;;5018155;28;10147;-78
2020/12/20 02:38:22;;;;;;;;;14.75;13.50;;;;;;;;5056206;28;10146;-79
2020/12/20 02:40:49;;;;;;;;;10.50;10.50;;;;;;;;5026229;28;10170;-79
2020/12/20 02:43:16;;;;;;;;;16.25;12.00;;;;;;;;5022623;28;11448;-82
2020/12/20 02:45:43;;;;;;;;;8.00;8.00;;;;;;;;5024671;28;10209;-80
2020/12/20 02:48:10;;;;;;;;;13.00;11.25;;;;;;;;5027628;28;9964;-80
2020/12/20 02:50:36;;;;;;;;;9.25;8.00;;;;;;;;5023024;28;10108;-82
2020/12/20 02:53:03;;;;;;;;;7.25;6.25;;;;;;;;5023312;28;10102;-82
2020/12/20 02:55:30;;;;;;;;;11.00;8.00;;;;;;;;5023962;28;10197;-82
2020/12/20 02:57:58;;;;;;;;;8.00;8.00;;;;;;;;5024265;28;10084;-81
2020/12/20 03:00:25;;;;;;;;;8.00;6.00;;;;;;;;5022479;28;10906;-82
2020/12/20 03:02:51;;;;;;;;;12.00;12.00;;;;;;;;5023649;28;10142;-82
2020/12/20 03:05:18;;;;;;;;;12.25;11.00;;;;;;;;5022677;28;10187;-82
2020/12/20 03:07:45;;;;;;;;;12.75;11.25;;;;;;;;5023713;28;10239;-82
2020/12/20 03:10:12;;;;;;;;;12.50;8.75;;;;;;;;5023731;28;10492;-80
2020/12/20 03:12:40;;;;;;;;;7.00;4.50;;;;;;;;5022917;28;10309;-82
2020/12/20 03:15:07;;;;;;;;;6.25;6.25;;;;;;;;5025169;28;10185;-82
2020/12/20 03:17:34;;;;;;;;;12.75;10.00;;;;;;;;5022421;28;10346;-82
2020/12/20 03:20:00;;;;;;;;;11.50;9.25;;;;;;;;5024152;28;10487;-82
2020/12/20 03:22:27;;;;;;;;;13.50;11.50;;;;;;;;5021319;28;10549;-82
2020/12/20 03:24:54;;;;;;;;;12.75;8.75;;;;;;;;5024705;28;10501;-81
2020/12/20 03:27:20;;;;;;;;;11.25;8.75;;;;;;;;5022062;28;10399;-81
2020/12/20 03:29:47;;;;;;;;;9.25;7.00;;;;;;;;5023085;28;10297;-78
2020/12/20 03:32:15;;;;;;;;;13.00;7.75;;;;;;;;5022068;28;10078;-78
2020/12/20 03:34:42;;;;;;;;;13.00;11.25;;;;;;;;5022415;28;10179;-79
2020/12/20 03:37:09;;;;;;;;;6.00;6.00;;;;;;;;5022076;28;10435;-80
2020/12/20 03:39:36;;;;;;;;;22.75;19.75;;;;;;;;5021673;28;10404;-80
2020/12/20 03:42:04;;;;;;;;;10.75;8.75;;;;;;;;5023337;28;10801;-82
2020/12/20 03:44:31;;;;;;;;;13.50;10.25;;;;;;;;5022864;28;10503;-81
2020/12/20 03:46:57;;;;;;;;;12.75;11.00;;;;;;;;5022293;28;10596;-82
2020/12/20 03:49:25;;;;;;;;;13.50;9.00;;;;;;;;5022786;28;10653;-83
2020/12/20 03:51:52;;;;;;;;;8.00;8.00;;;;;;;;5023300;28;10676;-82
2020/12/20 03:54:18;;;;;;;;;11.00;8.50;;;;;;;;5023506;28;10609;-82
2020/12/20 03:56:45;;;;;;;;;10.50;6.75;;;;;;;;5022234;28;10530;-80
2020/12/20 03:59:12;;;;;;;;;10.25;8.50;;;;;;;;5023795;28;10970;-81
2020/12/20 04:01:38;;;;;;;;;8.50;7.50;;;;;;;;5020802;28;10302;-78
2020/12/20 04:04:05;;;;;;;;;8.25;7.75;;;;;;;;5027022;28;10322;-80
2020/12/20 04:06:33;;;;;;;;;9.50;9.50;;;;;;;;5054137;28;10310;-79
2020/12/20 04:08:59;;;;;;;;;8.50;7.75;;;;;;;;5022656;28;10192;-81
2020/12/20 04:11:26;;;;;;;;;16.75;8.00;;;;;;;;5022011;28;10104;-81
2020/12/20 04:13:53;;;;;;;;;16.00;11.50;;;;;;;;5021829;28;10113;-81
2020/12/20 04:16:19;;;;;;;;;11.50;9.00;;;;;;;;5023581;28;10248;-82
2020/12/20 04:18:46;;;;;;;;;8.00;7.00;;;;;;;;5021963;28;10073;-82
2020/12/20 04:21:13;;;;;;;;;11.25;7.50;;;;;;;;5023093;28;10098;-80
2020/12/20 04:23:40;;;;;;;;;11.25;7.50;;;;;;;;5022683;28;10127;-82
2020/12/20 04:26:07;;;;;;;;;7.50;3.75;;;;;;;;5024949;28;10049;-81
2020/12/20 04:28:34;;;;;;;;;9.25;9.25;;;;;;;;5032157;28;10136;-81
2020/12/20 04:31:00;;;;;;;;;6.25;6.25;;;;;;;;5025643;28;10116;-82
2020/12/20 04:33:27;;;;;;;;;13.00;10.00;;;;;;;;5026087;28;10132;-81
2020/12/20 04:35:54;;;;;;;;;8.25;8.25;;;;;;;;5024666;28;10238;-79
2020/12/20 04:38:20;;;;;;;;;8.00;8.00;;;;;;;;5026451;28;10100;-81
2020/12/20 04:40:49;;;;;;;;;9.50;7.50;;;;;;;;5025254;28;10032;-82
2020/12/20 04:43:16;;;;;;;;;9.00;8.00;;;;;;;;5026010;28;10221;-84
2020/12/20 04:45:44;;;;;;;;;8.25;8.25;;;;;;;;5026013;28;10147;-81
2020/12/20 04:48:12;;;;;;;;;8.00;8.00;;;;;;;;5023283;28;10048;-80
2020/12/20 04:50:40;;;;;;;;;7.00;7.00;;;;;;;;5026131;28;9943;-82
2020/12/20 04:53:07;;;;;;;;;8.25;8.25;;;;;;;;5026390;28;10095;-80
2020/12/20 04:55:35;;;;;;;;;11.00;8.00;;;;;;;;5025390;28;10151;-81
2020/12/20 04:58:03;;;;;;;;;8.50;8.25;;;;;;;;5023258;28;11109;-81
2020/12/20 05:00:30;;;;;;;;;12.50;6.50;;;;;;;;5026140;28;10329;-81
2020/12/20 05:02:57;;;;;;;;;5.25;5.25;;;;;;;;5024581;28;10554;-79
2020/12/20 05:05:24;;;;;;;;;11.75;11.75;;;;;;;;5026377;28;10416;-82
2020/12/20 05:07:52;;;;;;;;;13.75;12.25;;;;;;;;5025550;28;10573;-82
2020/12/20 05:10:19;;;;;;;;;13.50;11.75;;;;;;;;5024819;28;10791;-81
2020/12/20 05:12:46;;;;;;;;;14.00;12.25;;;;;;;;5025290;28;10699;-81
2020/12/20 05:15:21;;;;;;;;;12.00;12.00;;;;;;;;5026297;28;10751;-80
2020/12/20 05:17:48;;;;;;;;;10.75;10.75;;;;;;;;5015435;28;10604;-81
2020/12/20 05:20:34;;;;;;;;;13.75;8.25;;;;;;;;5039256;28;10601;-80
2020/12/20 05:23:01;;;;;;;;;6.50;6.50;;;;;;;;5024585;28;10350;-81
2020/12/20 05:25:30;;;;;;;;;8.50;8.50;;;;;;;;5026125;28;9949;-81
2020/12/20 05:28:18;;;;;;;;;6.75;6.75;;;;;;;;5025796;28;9941;-81
2020/12/20 05:30:47;;;;;;;;;8.00;6.00;;;;;;;;5028000;28;10131;-78
2020/12/20 05:33:26;;;;;;;;;11.25;8.00;;;;;;;;5015264;28;10315;-81
2020/12/20 05:35:58;;;;;;;;;6.00;6.00;;;;;;;;5025188;28;10180;-82
2020/12/20 05:38:25;;;;;;;;;12.50;9.00;;;;;;;;5024321;28;10012;-82
2020/12/20 05:40:52;;;;;;;;;12.50;8.00;;;;;;;;5024546;28;10203;-80
2020/12/20 05:43:24;;;;;;;;;12.75;8.75;;;;;;;;5025058;28;10188;-78
2020/12/20 05:45:52;;;;;;;;;6.25;6.25;;;;;;;;5023849;28;10243;-80
2020/12/20 05:48:19;;;;;;;;;6.50;6.50;;;;;;;;5024425;28;10123;-79
2020/12/20 05:50:51;;;;;;;;;26.25;23.75;;;;;;;;5024578;28;10107;-82
2020/12/20 05:53:24;;;;;;;;;13.50;7.75;;;;;;;;5023501;28;10684;-79
2020/12/20 05:55:50;;;;;;;;;11.75;8.00;;;;;;;;5020648;28;10267;-82
2020/12/20 05:58:17;;;;;;;;;11.75;10.00;;;;;;;;5024043;28;10241;-81
2020/12/20 06:00:45;;;;;;;;;9.50;9.50;;;;;;;;5025134;28;10512;-77
2020/12/20 06:03:14;;;;;;;;;14.00;8.00;;;;;;;;5028025;28;10182;-80
2020/12/20 06:05:43;;;;;;;;;8.50;7.00;;;;;;;;5025443;28;10343;-83
2020/12/20 06:08:11;;;;;;;;;9.75;9.75;;;;;;;;5024429;28;10285;-81
2020/12/20 06:10:40;;;;;;;;;7.50;7.50;;;;;;;;5015474;28;10248;-81
2020/12/20 06:13:12;;;;;;;;;6.00;6.00;;;;;;;;5024972;28;10205;-81
2020/12/20 06:15:40;;;;;;;;;8.00;5.75;;;;;;;;5023581;28;10065;-81
2020/12/20 06:18:14;;;;;;;;;20.50;17.50;;;;;;;;5029600;28;10200;-81
2020/12/20 06:20:52;;;;;;;;;19.50;18.00;;;;;;;;5037671;28;11034;-83
2020/12/20 06:23:21;;;;;;;;;8.25;3.25;;;;;;;;5024698;28;10598;-81
2020/12/20 06:25:48;;;;;;;;;15.75;15.75;;;;;;;;5004895;28;10273;-82
2020/12/20 06:28:17;;;;;;;;;14.25;9.75;;;;;;;;5025692;28;10426;-81
2020/12/20 06:30:45;;;;;;;;;12.00;9.25;;;;;;;;5025085;28;10126;-81
2020/12/20 06:33:25;;;;;;;;;12.75;11.00;;;;;;;;5023521;28;10423;-82
2020/12/20 06:35:53;;;;;;;;;15.25;15.00;;;;;;;;5022750;28;10180;-81
2020/12/20 06:38:21;;;;;;;;;19.25;17.25;;;;;;;;5023170;28;10365;-78
2020/12/20 06:40:48;;;;;;;;;18.00;16.25;;;;;;;;5024965;28;10540;-82
2020/12/20 06:43:15;;;;;;;;;14.50;11.00;;;;;;;;5024538;28;10529;-83
2020/12/20 06:45:44;;;;;;;;;18.50;15.00;;;;;;;;5023880;28;10362;-83
2020/12/20 06:48:13;;;;;;;;;17.50;17.50;;;;;;;;5024236;28;10279;-83
2020/12/20 06:50:49;;;;;;;;;13.75;13.75;;;;;;;;5023606;28;10346;-80
2020/12/20 06:53:17;;;;;;;;;16.50;16.50;;;;;;;;5023586;28;11088;-81
2020/12/20 06:55:45;;;;;;;;;28.50;28.50;;;;;;;;5023942;28;10376;-83
2020/12/20 06:58:13;;;;;;;;;23.50;23.50;;;;;;;;5024005;28;10766;-82
2020/12/20 07:00:41;;;;;;;;;26.50;21.00;;;;;;;;5027507;28;10449;-78
2020/12/20 07:03:09;;;;;;;;;15.25;12.75;;;;;;;;5019240;28;10775;-82
2020/12/20 07:05:40;;;;;;;;;19.50;18.00;;;;;;;;5028032;28;10688;-81
2020/12/20 07:08:09;;;;;;;;;19.25;17.25;;;;;;;;5022362;28;10674;-82
2020/12/20 07:10:44;;;;;;;;;13.50;12.00;;;;;;;;5022983;28;10687;-81
2020/12/20 07:13:12;;;;;;;;;16.75;12.25;;;;;;;;5022874;28;10536;-84
2020/12/20 07:15:52;;;;;;;;;14.75;12.25;;;;;;;;5023075;28;10461;-80
2020/12/20 07:18:44;;;;;;;;;17.00;12.75;;;;;;;;5023514;28;10598;-79
2020/12/20 07:21:13;;;;;;;;;10.75;10.75;;;;;;;;5022180;28;10537;-81
2020/12/20 07:23:42;;;;;;;;;14.00;13.00;;;;;;;;5024894;28;10576;-85
2020/12/20 07:26:10;;;;;;;;;19.25;15.75;;;;;;;;5023481;28;10578;-83
2020/12/20 07:28:37;;;;;;;;;15.50;13.00;;;;;;;;5019709;28;11593;-77
2020/12/20 07:31:04;;;;;;;;;19.25;14.25;;;;;;;;5019687;28;10533;-79
2020/12/20 07:33:32;;;;;;;;;11.00;9.50;;;;;;;;5022368;28;11818;-80
2020/12/20 07:35:59;;;;;;;;;10.75;8.00;;;;;;;;5020943;28;10334;-78
2020/12/20 07:38:25;;;;;;;;;14.50;11.75;;;;;;;;5030004;28;10488;-80
2020/12/20 07:40:55;;;;;;;;;13.00;9.75;;;;;;;;5027630;28;10484;-81
2020/12/20 07:43:22;;;;;;;;;9.75;9.75;;;;;;;;5023915;28;10500;-80
2020/12/20 07:45:59;;;;;;;;;10.75;10.75;;;;;;;;5022851;28;10323;-79
2020/12/20 07:48:26;;;;;;;;;14.25;11.75;;;;;;;;5022544;28;10358;-78
2020/12/20 07:50:55;;;;;;;;;16.25;13.50;;;;;;;;5021005;28;10507;-72
2020/12/20 07:53:22;;;;;;;;;11.25;11.25;;;;;;;;5018770;28;11507;-73
2020/12/20 07:55:50;;;;;;;;;11.50;9.25;;;;;;;;5023358;28;10545;-73
2020/12/20 07:58:20;;;;;;;;;10.75;10.75;;;;;;;;5022634;28;10590;-71
2020/12/20 08:00:48;;;;;;;;;17.25;9.50;;;;;;;;5022197;28;10549;-71
2020/12/20 08:03:15;;;;;;;;;10.25;9.00;;;;;;;;5031141;28;10544;-71
2020/12/20 08:05:42;;;;;;;;;12.00;12.00;;;;;;;;5027880;28;10539;-73
2020/12/20 08:08:09;;;;;;;;;10.00;9.00;;;;;;;;5025292;28;11536;-72
2020/12/20 08:10:35;;;;;;;;;13.00;9.50;;;;;;;;5025784;28;10768;-71
2020/12/20 08:13:02;;;;;;;;;10.25;5.75;;;;;;;;5025158;28;10458;-72
2020/12/20 08:15:30;;;;;;;;;7.25;6.75;;;;;;;;5026234;28;10554;-73
2020/12/20 08:17:57;;;;;;;;;10.00;7.50;;;;;;;;5024651;28;10431;-73
2020/12/20 08:20:24;;;;;;;;;8.25;7.00;;;;;;;;5027712;28;10453;-71
2020/12/20 08:22:51;;;;;;;;;7.00;6.50;;;;;;;;5025308;28;10428;-70
2020/12/20 08:25:18;;;;;;;;;8.00;8.00;;;;;;;;5026570;28;10406;-73
2020/12/20 08:27:45;;;;;;;;;5.75;5.75;;;;;;;;5027769;28;10457;-70
2020/12/20 08:30:12;;;;;;;;;8.25;7.00;;;;;;;;5027054;28;10542;-70
2020/12/20 08:32:41;;;;;;;;;8.00;8.00;;;;;;;;5024965;28;10533;-71
2020/12/20 08:35:12;;;;;;;;;6.75;6.75;;;;;;;;5025352;28;10480;-71
2020/12/20 08:37:39;;;;;;;;;7.00;7.00;;;;;;;;5023505;28;10503;-71
2020/12/20 08:40:13;;;;;;;;;15.00;8.50;;;;;;;;5025979;28;10470;-71
2020/12/20 08:42:41;;;;;;;;;8.25;6.25;;;;;;;;5052541;28;10402;-71
2020/12/20 08:45:12;;;;;;;;;6.75;6.25;;;;;;;;5030856;28;10234;-73
2020/12/20 08:47:40;;;;;;;;;12.75;11.75;;;;;;;;5024778;28;10360;-71
2020/12/20 08:50:07;;;;;;;;;13.25;11.75;;;;;;;;5025330;28;10441;-70
2020/12/20 08:52:35;;;;;;;;;6.50;6.50;;;;;;;;5025514;28;10539;-72
2020/12/20 08:55:03;;;;;;;;;11.00;11.00;;;;;;;;5026080;28;10278;-71
2020/12/20 08:57:31;;;;;;;;;15.75;13.00;;;;;;;;5023379;28;10469;-72
2020/12/20 09:00:08;;;;;;;;;8.75;7.00;;;;;;;;5024269;28;10517;-72
2020/12/20 09:02:35;;;;;;;;;8.00;8.00;;;;;;;;5025200;28;10188;-72
2020/12/20 09:05:04;;;;;;;;;10.75;9.25;;;;;;;;5024413;28;11019;-72
2020/12/20 09:07:34;;;;;;;;;12.25;10.25;;;;;;;;5024864;28;10341;-72
2020/12/20 09:10:07;;;;;;;;;8.25;8.25;;;;;;;;5025168;28;11001;-72
2020/12/20 09:12:33;;;;;;;;;10.00;7.50;;;;;;;;5025611;28;10259;-72
2020/12/20 09:15:11;;;;;;;;;7.50;7.50;;;;;;;;5024996;28;10243;-73
2020/12/20 09:17:39;;;;;;;;;7.00;7.00;;;;;;;;5024110;28;10268;-76
2020/12/20 09:20:10;;;;;;;;;9.75;9.75;;;;;;;;5024104;28;10191;-73
2020/12/20 09:22:49;;;;;;;;;6.50;6.50;;;;;;;;5024443;28;10344;-74
2020/12/20 09:25:17;;;;;;;;;6.50;5.25;;;;;;;;5023717;28;10262;-74
2020/12/20 09:27:55;;;;;;;;;12.00;7.75;;;;;;;;5024243;28;10188;-77
2020/12/20 09:30:42;;;;;;;;;8.00;6.50;;;;;;;;5023529;28;10335;-73
2020/12/20 09:33:19;;;;;;;;;7.50;7.50;;;;;;;;5024823;28;10330;-77
2020/12/20 09:35:55;;;;;;;;;8.00;8.00;;;;;;;;5029347;28;10253;-74
2020/12/20 09:38:23;;;;;;;;;8.50;7.25;;;;;;;;5030805;28;10326;-73
2020/12/20 09:41:03;;;;;;;;;7.25;6.75;;;;;;;;5022901;28;10186;-74
2020/12/20 09:43:30;;;;;;;;;6.75;5.00;;;;;;;;5022834;28;10133;-71
2020/12/20 09:45:57;;;;;;;;;7.75;7.75;;;;;;;;5022679;28;10193;-73
2020/12/20 09:48:24;;;;;;;;;15.75;9.00;;;;;;;;5022661;28;10415;-72
2020/12/20 09:50:52;;;;;;;;;18.75;13.50;;;;;;;;5025576;28;10598;-72
2020/12/20 09:53:19;;;;;;;;;17.75;16.25;;;;;;;;5022368;28;10607;-72
2020/12/20 09:55:45;;;;;;;;;17.00;16.50;;;;;;;;5024823;28;10759;-71
2020/12/20 09:58:13;;;;;;;;;16.25;16.00;;;;;;;;5023406;28;10567;-72
2020/12/20 10:00:40;;;;;;;;;13.50;13.25;;;;;;;;5024829;28;10391;-73
2020/12/20 10:03:07;;;;;;;;;8.50;7.75;;;;;;;;5021434;28;10250;-71
2020/12/20 10:05:34;;;;;;;;;7.25;7.25;;;;;;;;5022084;28;10206;-72
2020/12/20 10:08:02;;;;;;;;;3.25;3.25;;;;;;;;5028112;28;10152;-72
2020/12/20 10:10:29;;;;;;;;;7.00;5.00;;;;;;;;5025378;28;9955;-74
2020/12/20 10:12:57;;;;;;;;;5.25;2.25;;;;;;;;5023697;28;9570;-72
2020/12/20 10:15:24;;;;;;;;;4.67;4.00;;;;;;;;5022879;28;9500;-72
2020/12/20 10:17:51;;;;;;;;;7.00;4.00;;;;;;;;5024676;28;9419;-72
2020/12/20 10:20:18;;;;;;;;;3.33;3.33;;;;;;;;5022896;28;9397;-71
2020/12/20 10:22:45;;;;;;;;;6.00;4.00;;;;;;;;5018929;28;9171;-71
2020/12/20 10:25:13;;;;;;;;;4.33;3.00;;;;;;;;5023180;28;9364;-72
2020/12/20 10:27:41;;;;;;;;;3.00;3.00;;;;;;;;5021529;28;9353;-72
2020/12/20 10:30:08;;;;;;;;;5.00;3.00;;;;;;;;5023067;28;9295;-71
2020/12/20 10:32:34;;;;;;;;;2.00;2.00;;;;;;;;5023741;28;9328;-71
2020/12/20 10:35:01;;;;;;;;;3.00;3.00;;;;;;;;5023895;28;9200;-73
2020/12/20 10:37:28;;;;;;;;;3.00;1.00;;;;;;;;5023025;28;9272;-71
2020/12/20 10:39:55;;;;;;;;;2.50;2.50;;;;;;;;5022414;28;9286;-70
2020/12/20 10:42:23;;;;;;;;;4.67;2.00;;;;;;;;5018654;28;9255;-73
2020/12/20 10:44:50;;;;;;;;;2.67;2.67;;;;;;;;5053377;28;9208;-73
2020/12/20 10:47:17;;;;;;;;;2.67;2.67;;;;;;;;5026866;28;9205;-72
2020/12/20 10:49:44;;;;;;;;;2.33;2.33;;;;;;;;5022278;28;9938;-73
2020/12/20 10:52:11;;;;;;;;;6.00;3.00;;;;;;;;5021989;28;10132;-73
2020/12/20 10:54:38;;;;;;;;;4.67;1.33;;;;;;;;5022288;28;9345;-73
2020/12/20 10:57:05;;;;;;;;;3.50;2.75;;;;;;;;5018983;28;9357;-72
2020/12/20 10:59:34;;;;;;;;;3.00;3.00;;;;;;;;5021694;28;9411;-72
2020/12/20 11:02:00;;;;;;;;;2.33;2.33;;;;;;;;5027859;28;9207;-72
2020/12/20 11:04:27;;;;;;;;;4.00;2.33;;;;;;;;5032879;28;9243;-73
2020/12/20 11:06:56;;;;;;;;;5.00;3.00;;;;;;;;5025547;28;9303;-73
2020/12/20 11:09:23;;;;;;;;;6.67;3.67;;;;;;;;5023351;28;9209;-72
2020/12/20 11:11:50;;;;;;;;;6.33;2.33;;;;;;;;5020683;28;9302;-73
2020/12/20 11:14:17;;;;;;;;;3.33;1.00;;;;;;;;5026989;28;9113;-73
2020/12/20 11:16:45;;;;;;;;;2.75;1.00;;;;;;;;5022775;28;9041;-73
2020/12/20 11:19:13;;;;;;;;;3.00;1.75;;;;;;;;5022709;28;8864;-73
2020/12/20 11:21:40;;;;;;;;;3.00;3.00;;;;;;;;5024191;28;8857;-72
2020/12/20 11:24:08;;;;;;;;;2.75;2.50;;;;;;;;5018975;28;8947;-72
2020/12/20 11:26:35;;;;;;;;;4.00;2.25;;;;;;;;5020519;28;8894;-72
2020/12/20 11:29:02;;;;;;;;;1.75;1.00;;;;;;;;5021636;28;8884;-73
2020/12/20 11:31:29;;;;;;;;;2.25;1.50;;;;;;;;5024132;28;9045;-72
2020/12/20 11:33:57;;;;;;;;;4.50;2.00;;;;;;;;5021871;28;8855;-72
2020/12/20 11:36:25;;;;;;;;;2.25;2.25;;;;;;;;5020948;28;8884;-72
2020/12/20 11:38:52;;;;;;;;;1.00;1.00;;;;;;;;5022263;28;9622;-72
2020/12/20 11:41:21;;;;;;;;;2.75;1.00;;;;;;;;5020849;28;8968;-73
2020/12/20 11:43:47;;;;;;;;;2.25;1.00;;;;;;;;5020337;28;8879;-72
2020/12/20 11:46:14;;;;;;;;;2.00;2.00;;;;;;;;5022510;28;8982;-74
2020/12/20 11:48:41;;;;;;;;;4.50;2.50;;;;;;;;5023744;28;8960;-72
2020/12/20 11:51:10;;;;;;;;;2.75;1.50;;;;;;;;5025189;28;8980;-72
2020/12/20 11:53:37;;;;;;;;;2.00;2.00;;;;;;;;5025630;28;8878;-73
2020/12/20 11:56:07;;;;;;;;;1.67;1.67;;;;;;;;5022528;28;8950;-72
2020/12/20 11:58:33;;;;;;;;;1.75;1.75;;;;;;;;5022072;28;9013;-73
2020/12/20 12:01:01;;;;;;;;;6.50;4.50;;;;;;;;5030130;28;8796;-72
2020/12/20 12:03:27;;;;;;;;;1.00;1.00;;;;;;;;5022980;28;8907;-72
2020/12/20 12:05:54;;;;;;;;;3.50;2.00;;;;;;;;5023954;28;8892;-73
2020/12/20 12:08:21;;;;;;;;;2.00;1.00;;;;;;;;5020818;28;8881;-73
2020/12/20 12:10:49;;;;;;;;;1.00;1.00;;;;;;;;5021061;28;8885;-73
2020/12/20 12:13:16;;;;;;;;;5.33;2.00;;;;;;;;5017437;28;9780;-73
2020/12/20 12:15:44;;;;;;;;;2.00;2.00;;;;;;;;5018810;28;8964;-73
2020/12/20 12:18:11;;;;;;;;;2.00;2.00;;;;;;;;5020711;28;8985;-72
2020/12/20 12:20:38;;;;;;;;;3.33;2.67;;;;;;;;5020486;28;9710;-74
2020/12/20 12:23:04;;;;;;;;;1.00;1.00;;;;;;;;5022207;28;9051;-73
2020/12/20 12:25:33;;;;;;;;;2.50;1.25;;;;;;;;5022583;28;8975;-73
2020/12/20 12:27:59;;;;;;;;;2.00;2.00;;;;;;;;5021724;28;8969;-74
2020/12/20 12:30:27;;;;;;;;;1.00;1.00;;;;;;;;5021392;28;8793;-72
2020/12/20 12:32:54;;;;;;;;;1.00;1.00;;;;;;;;5022228;28;8933;-71
2020/12/20 12:35:22;;;;;;;;;2.00;0.00;;;;;;;;5021959;28;8857;-71
2020/12/20 12:37:50;;;;;;;;;3.00;2.25;;;;;;;;5025093;28;8882;-71
2020/12/20 12:40:18;;;;;;;;;2.00;2.00;;;;;;;;5023067;28;8859;-71
2020/12/20 12:42:46;;;;;;;;;2.00;1.25;;;;;;;;5020780;28;8882;-70
2020/12/20 12:45:14;;;;;;;;;3.00;3.00;;;;;;;;5022899;28;8864;-72
2020/12/20 12:47:41;;;;;;;;;3.25;2.00;;;;;;;;5023008;28;8844;-71
2020/12/20 12:50:08;;;;;;;;;2.50;1.00;;;;;;;;5026252;28;8950;-71
2020/12/20 12:52:34;;;;;;;;;2.00;2.00;;;;;;;;5028624;28;8860;-72
2020/12/20 12:55:01;;;;;;;;;2.50;1.75;;;;;;;;5035796;28;8884;-71
2020/12/20 12:57:28;;;;;;;;;4.00;2.25;;;;;;;;5025583;28;8868;-72
2020/12/20 12:59:56;;;;;;;;;1.00;1.00;;;;;;;;5024843;28;8840;-71
2020/12/20 13:02:22;;;;;;;;;2.25;1.75;;;;;;;;5024052;28;8844;-71
2020/12/20 13:04:49;;;;;;;;;1.50;1.00;;;;;;;;5023731;28;8883;-72
2020/12/20 13:07:16;;;;;;;;;1.25;1.00;;;;;;;;5029225;28;8882;-72
2020/12/20 13:09:43;;;;;;;;;2.75;1.75;;;;;;;;5023925;28;8864;-72
2020/12/20 13:12:11;;;;;;;;;2.25;2.25;;;;;;;;5024858;28;8902;-71
2020/12/20 13:14:46;;;;;;;;;1.75;1.75;;;;;;;;5024993;28;8864;-71
2020/12/20 13:17:14;;;;;;;;;2.00;2.00;;;;;;;;5023576;28;8866;-72
2020/12/20 13:19:41;;;;;;;;;3.00;2.00;;;;;;;;5025749;28;9622;-72
2020/12/20 13:22:08;;;;;;;;;3.00;3.00;;;;;;;;5018471;28;9609;-72
2020/12/20 13:24:34;;;;;;;;;1.00;1.00;;;;;;;;5024180;28;9669;-72
2020/12/20 13:27:01;;;;;;;;;2.00;2.00;;;;;;;;5021956;28;8902;-72
2020/12/20 13:29:28;;;;;;;;;5.50;2.00;;;;;;;;5023769;28;8876;-71
2020/12/20 13:31:54;;;;;;;;;3.00;3.00;;;;;;;;5023854;28;8839;-72
2020/12/20 13:34:23;;;;;;;;;1.75;1.75;;;;;;;;5023810;28;8906;-72
2020/12/20 13:36:50;;;;;;;;;2.00;2.00;;;;;;;;5026570;28;8910;-72
2020/12/20 13:39:17;;;;;;;;;2.75;2.75;;;;;;;;5022647;28;8890;-72
2020/12/20 13:41:45;;;;;;;;;3.50;3.50;;;;;;;;5023780;28;8868;-72
2020/12/20 13:44:12;;;;;;;;;3.25;1.00;;;;;;;;5020141;28;8887;-73
2020/12/20 13:46:39;;;;;;;;;2.00;2.00;;;;;;;;5053234;28;8875;-72
2020/12/20 13:49:06;;;;;;;;;1.75;1.50;;;;;;;;5023050;28;8871;-73
2020/12/20 13:51:34;;;;;;;;;4.50;1.00;;;;;;;;5023120;28;8872;-72
2020/12/20 13:54:00;;;;;;;;;1.50;1.50;;;;;;;;5022714;28;8969;-72
2020/12/20 13:56:27;;;;;;;;;3.00;2.00;;;;;;;;5022856;28;8868;-71
2020/12/20 13:58:53;;;;;;;;;1.00;1.00;;;;;;;;5022085;28;9094;-72
2020/12/20 14:01:20;;;;;;;;;3.00;1.25;;;;;;;;5019805;28;8867;-72
2020/12/20 14:03:47;;;;;;;;;0.75;0.75;;;;;;;;5023778;28;10028;-71
2020/12/20 14:06:14;;;;;;;;;1.50;1.50;;;;;;;;5022492;28;8868;-71
2020/12/20 14:08:42;;;;;;;;;1.75;1.75;;;;;;;;5022751;28;8887;-71
2020/12/20 14:11:13;;;;;;;;;1.00;1.00;;;;;;;;5022090;28;9018;-72
2020/12/20 14:13:41;;;;;;;;;0.50;0.50;;;;;;;;5022790;28;9724;-71
2020/12/20 14:16:11;;;;;;;;;1.00;1.00;;;;;;;;5022292;28;8860;-72
2020/12/20 14:18:38;;;;;;;;;1.00;1.00;;;;;;;;5021746;28;8976;-71
2020/12/20 14:21:05;;;;;;;;;0.25;0.25;;;;;;;;5027059;28;9000;-72
2020/12/20 14:23:32;;;;;;;;;0.25;0.25;;;;;;;;5021911;28;8884;-72
2020/12/20 14:26:00;;;;;;;;;0.25;0.25;;;;;;;;5025014;28;8970;-72
2020/12/20 14:28:27;;;;;;;;;1.00;1.00;;;;;;;;5018773;28;8880;-73
2020/12/20 14:30:54;;;;;;;;;1.00;1.00;;;;;;;;5023314;28;8808;-73
2020/12/20 14:33:21;;;;;;;;;1.00;1.00;;;;;;;;5021582;28;8895;-72
2020/12/20 14:35:50;;;;;;;;;1.00;1.00;;;;;;;;5024272;28;8997;-72
2020/12/20 14:38:18;;;;;;;;;1.75;1.75;;;;;;;;5054031;28;8980;-73
2020/12/20 14:40:46;;;;;;;;;1.25;1.00;;;;;;;;5022685;28;8902;-72